This is the latest recevied weather packets stored in our database for station/object KD4PMP. If no packets are shown the sender has not sent any weather packets the latest 10 day(s).
| Time | Temp. | Humidity | Pressure | Rain* | Wind** | Luminosity | Snow |
|---|---|---|---|---|---|---|---|
| 1777613396 | 10° C | 87% | 1014.9 hPa | 0 mm | - | - | - |
| 1777612796 | 10° C | 87% | 1014.8 hPa | 0 mm | - | - | - |
| 1777612196 | 10° C | 87% | 1014.8 hPa | 0 mm | - | - | - |
| 1777611025 | 10° C | 85% | 1014.8 hPa | 0 mm | - | - | - |
| 1777610425 | 10° C | 84% | 1014.8 hPa | 0 mm | - | - | - |
| 1777609824 | 10.56° C | 83% | 1014.9 hPa | 0 mm | - | - | - |
| 1777609224 | 10.56° C | 83% | 1014.9 hPa | 0 mm | - | - | - |
| 1777608624 | 10.56° C | 83% | 1015 hPa | 0 mm | - | - | - |
| 1777608024 | 11.11° C | 83% | 1015.1 hPa | 0 mm | - | - | - |
| 1777607423 | 11.11° C | 82% | 1015.1 hPa | 0 mm | - | - | - |
| 1777606793 | 11.11° C | 81% | 1015.1 hPa | 0 mm | - | - | - |
| 1777606223 | 11.11° C | 80% | 1015.1 hPa | 0 mm | - | - | - |
| 1777605623 | 11.11° C | 79% | 1015.3 hPa | 0 mm | - | - | - |
| 1777605022 | 11.11° C | 78% | 1015.2 hPa | 0 mm | - | - | - |
| 1777604422 | 11.67° C | 77% | 1015.1 hPa | 0 mm | - | - | - |
| 1777603821 | 11.67° C | 75% | 1015 hPa | 0 mm | - | - | - |
| 1777603221 | 11.67° C | 75% | 1014.9 hPa | 0 mm | - | - | - |
| 1777602621 | 11.67° C | 74% | 1014.8 hPa | 0 mm | - | - | - |
| 1777602021 | 12.22° C | 70% | 1014.5 hPa | 0 mm | - | - | - |
| 1777601421 | 12.22° C | 68% | 1014.3 hPa | 0 mm | - | - | - |
| 1777585813 | 18.89° C | 43% | 1014 hPa | 0 mm | - | - | - |
| 1777585213 | 18.89° C | 43% | 1014 hPa | 0 mm | - | - | - |
| 1777584012 | 18.89° C | 44% | 1014.4 hPa | 0 mm | - | - | - |
| 1777583411 | 18.33° C | 46% | 1014.4 hPa | 0 mm | - | - | - |
| 1777582812 | 18.33° C | 45% | 1014.4 hPa | 0 mm | - | - | - |
* Rain latest hour (hover to see other rain measurements)
** Current wind speed in m/s (hover to see current wind gust speed)